Time;durP1;ratioP1;P1;durP2;ratioP2;P2;SDS_P1;SDS_P2;PMS_P1;PMS_P2;Temp;Humidity;BMP_temperature;BMP_pressure;BME280_temperature;BME280_humidity;BME280_pressure;Samples;Min_cycle;Max_cycle;Signal;HPM_P1;HPM_P2
2023/07/05 00:00:30;;;;;;;1999.90;999.90;;;;;;;18.95;100.00;97858.97;5088964;28;20395;-75
2023/07/05 00:02:56;;;;;;;1999.90;999.90;;;;;;;18.94;100.00;97860.16;5090509;28;20028;-75
2023/07/05 00:05:21;;;;;;;1999.90;999.90;;;;;;;18.96;100.00;97868.91;5090552;28;20028;-76
2023/07/05 00:07:47;;;;;;;1999.90;999.90;;;;;;;18.93;100.00;97864.06;5091769;28;20024;-76
2023/07/05 00:10:13;;;;;;;1999.90;999.90;;;;;;;18.87;100.00;97868.25;5094970;28;20468;-75
2023/07/05 00:12:39;;;;;;;1999.90;999.90;;;;;;;18.80;100.00;97873.56;5095045;28;20081;-75
2023/07/05 00:15:05;;;;;;;1999.90;999.90;;;;;;;18.83;100.00;97870.09;5093519;28;20039;-77
2023/07/05 00:17:35;;;;;;;1999.90;999.90;;;;;;;18.74;100.00;97869.44;5094987;28;20031;-76
2023/07/05 00:20:01;;;;;;;1999.90;999.90;;;;;;;18.63;100.00;97855.28;5094877;28;20024;-77
2023/07/05 00:22:27;;;;;;;1999.90;999.90;;;;;;;18.70;100.00;97860.22;5094648;28;20058;-76
2023/07/05 00:24:53;;;;;;;1999.90;999.90;;;;;;;18.62;100.00;97859.19;5093754;28;20460;-75
2023/07/05 00:27:20;;;;;;;1999.90;999.90;;;;;;;18.58;100.00;97866.59;5110248;28;20043;-77
2023/07/05 00:29:46;;;;;;;1999.90;999.90;;;;;;;18.58;100.00;97863.81;5096398;28;20071;-76
2023/07/05 00:32:11;;;;;;;1999.90;999.90;;;;;;;18.57;100.00;97862.22;5092613;28;20036;-75
2023/07/05 00:34:36;;;;;;;1999.90;999.90;;;;;;;18.63;100.00;97866.38;5093802;28;20028;-74
2023/07/05 00:37:02;;;;;;;1999.90;999.90;;;;;;;18.63;100.00;97865.56;5093855;28;20460;-76
2023/07/05 00:39:27;;;;;;;1999.90;999.90;;;;;;;18.54;100.00;97865.66;5092412;28;20069;-75
2023/07/05 00:41:52;;;;;;;1999.90;999.90;;;;;;;18.57;100.00;97864.19;5093859;28;20020;-77
2023/07/05 00:44:18;;;;;;;1999.90;999.90;;;;;;;18.58;100.00;97857.47;5093850;28;20097;-75
2023/07/05 00:46:53;;;;;;;1999.90;999.90;;;;;;;18.49;100.00;97856.75;5092412;28;20036;-76
2023/07/05 00:49:21;;;;;;;1999.90;999.90;;;;;;;18.49;100.00;97854.00;5093503;28;20071;-75
2023/07/05 00:51:50;;;;;;;1999.90;999.90;;;;;;;18.48;100.00;97847.63;5093429;28;20048;-75
2023/07/05 00:54:20;;;;;;;1999.90;999.90;;;;;;;18.39;100.00;97835.88;5092317;28;20472;-76
2023/07/05 00:57:12;;;;;;;1999.90;999.90;;;;;;;18.36;100.00;97835.78;5093478;28;20431;-75
2023/07/05 00:59:45;;;;;;;1999.90;999.90;;;;;;;18.35;100.00;97832.22;5091349;28;20062;-75
2023/07/05 01:02:10;;;;;;;1999.90;999.90;;;;;;;18.32;100.00;97838.47;5093468;28;20032;-75
2023/07/05 01:04:36;;;;;;;1999.90;999.90;;;;;;;18.29;100.00;97833.63;5093165;28;20028;-76
2023/07/05 01:07:02;;;;;;;1999.90;999.90;;;;;;;18.31;100.00;97836.03;5093421;28;20058;-75
2023/07/05 01:09:29;;;;;;;1999.90;999.90;;;;;;;18.33;100.00;97837.28;5094302;28;20071;-76
2023/07/05 01:12:26;;;;;;;1999.90;999.90;;;;;;;18.30;100.00;97829.69;5109060;28;20028;-76
2023/07/05 01:15:07;;;;;;;1999.90;999.90;;;;;;;18.23;100.00;97840.53;5113607;28;20107;-76
2023/07/05 01:17:46;;;;;;;1999.90;999.90;;;;;;;18.18;100.00;97838.00;5113534;28;20030;-77
2023/07/05 01:20:30;;;;;;;1999.90;999.90;;;;;;;18.05;100.00;97839.97;5113307;28;20452;-77
2023/07/05 01:23:24;;;;;;;1999.90;999.90;;;;;;;17.83;100.00;97818.28;5122559;28;20024;-78
2023/07/05 01:26:36;;;;;;;1999.90;999.90;;;;;;;17.81;100.00;97831.69;5079009;28;20075;-76
2023/07/05 01:29:10;;;;;;;1999.90;999.90;;;;;;;17.75;100.00;97833.06;5072808;28;20033;-77
2023/07/05 01:31:54;;;;;;;1999.90;999.90;;;;;;;17.68;100.00;97832.81;5087716;28;20054;-77
2023/07/05 01:34:31;;;;;;;1999.90;999.90;;;;;;;17.59;100.00;97826.59;5092429;28;20028;-79
2023/07/05 01:36:57;;;;;;;1999.90;999.90;;;;;;;17.49;100.00;97818.69;5092328;28;20028;-76
2023/07/05 01:39:22;;;;;;;1999.90;999.90;;;;;;;17.50;100.00;97812.03;5091945;28;20020;-78
2023/07/05 01:41:48;;;;;;;1999.90;999.90;;;;;;;17.52;100.00;97823.53;5092229;28;20043;-77
2023/07/05 01:44:15;;;;;;;1999.90;999.90;;;;;;;17.40;100.00;97818.81;5092091;28;20381;-78
2023/07/05 01:46:45;;;;;;;1999.90;999.90;;;;;;;17.33;100.00;97814.97;5092211;28;20043;-77
2023/07/05 01:49:49;;;;;;;1999.90;999.90;;;;;;;17.31;100.00;97817.28;5091943;28;20039;-78
2023/07/05 01:52:21;;;;;;;1999.90;999.90;;;;;;;17.26;100.00;97810.00;5082174;28;20032;-78
2023/07/05 01:55:10;;;;;;;1999.90;999.90;;;;;;;17.22;100.00;97820.16;5090850;28;20055;-79
2023/07/05 01:57:48;;;;;;;1999.90;999.90;;;;;;;17.16;100.00;97817.94;5091858;28;20539;-78
2023/07/05 02:00:17;;;;;;;1999.90;999.90;;;;;;;17.11;100.00;97822.53;5092232;28;20028;-77
2023/07/05 02:02:48;;;;;;;1999.90;999.90;;;;;;;17.14;100.00;97818.28;5091969;28;20546;-78
2023/07/05 02:05:15;;;;;;;1999.90;999.90;;;;;;;17.10;100.00;97811.84;5091816;28;20472;-78
2023/07/05 02:07:44;;;;;;;1999.90;999.90;;;;;;;17.03;100.00;97815.16;5091852;28;20024;-78
2023/07/05 02:10:10;;;;;;;1999.90;999.90;;;;;;;17.06;100.00;97805.34;5091666;28;20373;-77
2023/07/05 02:12:35;;;;;;;1999.90;999.90;;;;;;;17.16;100.00;97823.47;5092223;28;20035;-77
2023/07/05 02:15:02;;;;;;;1999.90;999.90;;;;;;;17.19;100.00;97817.25;5097296;28;20024;-79
2023/07/05 02:17:28;;;;;;;1999.90;999.90;;;;;;;17.13;100.00;97814.69;5097254;28;20032;-78
2023/07/05 02:19:53;;;;;;;1999.90;999.90;;;;;;;17.09;100.00;97812.97;5091751;28;20421;-79
2023/07/05 02:22:19;;;;;;;1999.90;999.90;;;;;;;17.10;100.00;97818.13;5091117;28;20031;-77
2023/07/05 02:24:46;;;;;;;1999.90;999.90;;;;;;;17.06;100.00;97820.00;5091384;28;20026;-77
2023/07/05 02:27:11;;;;;;;1999.90;999.90;;;;;;;17.06;100.00;97805.34;5089898;28;20023;-78
2023/07/05 02:29:37;;;;;;;1999.90;999.90;;;;;;;17.13;100.00;97819.44;5091927;28;20026;-78
2023/07/05 02:32:02;;;;;;;1999.90;999.90;;;;;;;17.22;100.00;97819.34;5090483;28;20067;-76
2023/07/05 02:34:28;;;;;;;1999.90;999.90;;;;;;;17.34;100.00;97820.19;5091532;28;20024;-78
2023/07/05 02:36:54;;;;;;;1999.90;999.90;;;;;;;17.29;100.00;97819.59;5091470;28;20024;-76
2023/07/05 02:39:19;;;;;;;1999.90;999.90;;;;;;;17.24;100.00;97811.50;5091230;28;20131;-76
2023/07/05 02:41:45;;;;;;;1999.90;999.90;;;;;;;17.18;100.00;97818.41;5077029;28;20023;-76
2023/07/05 02:44:10;;;;;;;1999.90;999.90;;;;;;;17.17;100.00;97817.59;5091007;28;20495;-78
2023/07/05 02:46:36;;;;;;;1999.90;999.90;;;;;;;17.21;100.00;97814.94;5081202;28;20024;-78
2023/07/05 02:49:02;;;;;;;1999.90;999.90;;;;;;;17.24;100.00;97809.56;5070501;28;20044;-77
2023/07/05 02:51:28;;;;;;;1999.90;999.90;;;;;;;17.21;100.00;97804.69;5070800;28;20034;-76
2023/07/05 02:53:54;;;;;;;1999.90;999.90;;;;;;;17.22;100.00;97811.84;5070813;28;20025;-76
2023/07/05 02:56:20;;;;;;;1999.90;999.90;;;;;;;17.16;100.00;97806.88;5070306;28;20051;-77
2023/07/05 02:58:45;;;;;;;1999.90;999.90;;;;;;;17.08;100.00;97809.38;5085337;28;20051;-76
2023/07/05 03:01:11;;;;;;;1999.90;999.90;;;;;;;16.98;100.00;97801.53;5091209;28;20040;-76
2023/07/05 03:03:36;;;;;;;1999.90;999.90;;;;;;;17.06;100.00;97808.13;5090429;28;20085;-78
2023/07/05 03:06:01;;;;;;;1999.90;999.90;;;;;;;17.06;100.00;97811.69;5090878;28;20039;-77
2023/07/05 03:08:28;;;;;;;1999.90;999.90;;;;;;;17.10;100.00;97803.53;5096807;28;20020;-77
2023/07/05 03:10:58;;;;;;;1999.90;999.90;;;;;;;17.10;100.00;97807.09;5089638;28;20030;-77
2023/07/05 03:13:34;;;;;;;1999.90;999.90;;;;;;;17.09;100.00;97813.78;5089695;28;20024;-76
2023/07/05 03:16:02;;;;;;;1999.90;999.90;;;;;;;17.00;100.00;97803.97;5091689;28;20804;-75
2023/07/05 03:18:29;;;;;;;1999.90;999.90;;;;;;;17.01;100.00;97811.09;5095219;28;20020;-76
2023/07/05 03:20:54;;;;;;;1999.90;999.90;;;;;;;17.10;100.00;97809.06;5103390;28;20024;-76
2023/07/05 03:23:21;;;;;;;1999.90;999.90;;;;;;;17.05;100.00;97810.06;5090962;28;20434;-77
2023/07/05 03:26:13;;;;;;;1999.90;999.90;;;;;;;17.03;100.00;97820.69;5090771;28;20051;-76
2023/07/05 03:28:38;;;;;;;1999.90;999.90;;;;;;;17.04;100.00;97818.72;5087859;28;20048;-75
2023/07/05 03:31:12;;;;;;;1999.90;999.90;;;;;;;17.17;100.00;97825.06;5090998;28;20499;-77
2023/07/05 03:33:38;;;;;;;1999.90;999.90;;;;;;;17.48;100.00;97822.59;5082560;28;20035;-76
2023/07/05 03:36:14;;;;;;;1999.90;999.90;;;;;;;17.62;100.00;97823.94;5084359;28;20365;-76
2023/07/05 03:38:40;;;;;;;1999.90;999.90;;;;;;;17.63;100.00;97831.09;5090355;28;20384;-76
2023/07/05 03:41:10;;;;;;;1999.90;999.90;;;;;;;17.51;100.00;97830.25;5090300;28;20035;-77
2023/07/05 03:43:37;;;;;;;1999.90;999.90;;;;;;;17.52;100.00;97816.06;5093282;28;20616;-77
2023/07/05 03:46:05;;;;;;;1999.90;999.90;;;;;;;17.95;100.00;97815.50;5094628;28;20412;-83
2023/07/05 03:48:35;;;;;;;1999.90;999.90;;;;;;;18.52;100.00;97828.38;5094269;28;20086;-75
2023/07/05 03:51:01;;;;;;;1999.90;999.90;;;;;;;19.28;100.00;97828.22;5093400;28;20025;-76
2023/07/05 03:53:27;;;;;;;1999.90;999.90;;;;;;;19.55;100.00;97835.69;5074094;28;20065;-77
2023/07/05 03:55:53;;;;;;;1999.90;999.90;;;;;;;19.06;100.00;97835.13;5074051;28;20807;-75
2023/07/05 03:58:18;;;;;;;1999.90;999.90;;;;;;;19.56;100.00;97836.50;5074017;28;20043;-75
2023/07/05 04:00:45;;;;;;;1999.90;999.90;;;;;;;20.43;100.00;97842.66;5074323;28;21156;-75
2023/07/05 04:03:11;;;;;;;1999.90;999.90;;;;;;;21.21;100.00;97849.91;5074021;28;20436;-75
2023/07/05 04:05:36;;;;;;;1999.90;999.90;;;;;;;21.80;100.00;97849.44;5073825;28;20056;-76
2023/07/05 04:08:02;;;;;;;1999.90;999.90;;;;;;;22.55;100.00;97845.88;5073890;28;20067;-75
2023/07/05 04:10:27;;;;;;;1999.90;999.90;;;;;;;22.62;100.00;97841.19;5073897;28;20024;-76
2023/07/05 04:12:53;;;;;;;1999.90;999.90;;;;;;;21.59;100.00;97840.69;5073634;28;20024;-75
2023/07/05 04:15:19;;;;;;;1999.90;999.90;;;;;;;20.85;100.00;97840.00;5073780;28;20037;-76
2023/07/05 04:17:45;;;;;;;1999.90;999.90;;;;;;;20.67;100.00;97845.19;5073627;28;20013;-74
2023/07/05 04:20:10;;;;;;;1999.90;999.90;;;;;;;21.40;100.00;97846.28;5073654;28;20055;-75
2023/07/05 04:22:39;;;;;;;1999.90;999.90;;;;;;;22.96;100.00;97858.84;5091790;28;20051;-76
2023/07/05 04:25:05;;;;;;;1999.90;999.90;;;;;;;23.67;100.00;97851.31;5093628;28;20025;-74
2023/07/05 04:27:31;;;;;;;1999.90;999.90;;;;;;;23.81;100.00;97857.00;5093815;28;20476;-76
2023/07/05 04:29:56;;;;;;;1999.90;999.90;;;;;;;23.01;100.00;97869.66;5094030;28;20086;-75
2023/07/05 04:32:22;;;;;;;1999.90;999.90;;;;;;;21.62;100.00;97865.00;5093542;28;20035;-75
2023/07/05 04:34:47;;;;;;;1999.90;999.90;;;;;;;20.39;100.00;97846.53;5093578;28;20027;-75
2023/07/05 04:37:13;;;;;;;1999.90;999.90;;;;;;;19.89;100.00;97842.50;5093514;28;20541;-75
2023/07/05 04:39:38;;;;;;;1999.90;999.90;;;;;;;19.65;100.00;97843.50;5096524;28;20024;-78
2023/07/05 04:42:04;;;;;;;1999.90;999.90;;;;;;;19.35;100.00;97841.47;5097568;28;20035;-76
2023/07/05 04:44:29;;;;;;;1999.90;999.90;;;;;;;19.32;100.00;97843.00;5094327;28;20024;-76
2023/07/05 04:46:54;;;;;;;1999.90;999.90;;;;;;;19.22;100.00;97844.31;5093441;28;20024;-75
2023/07/05 04:49:20;;;;;;;1999.90;999.90;;;;;;;19.12;100.00;97844.81;5091924;28;20051;-76
2023/07/05 04:51:46;;;;;;;1999.90;999.90;;;;;;;19.13;100.00;97840.09;5096485;28;20036;-76
2023/07/05 04:54:16;;;;;;;1999.90;999.90;;;;;;;19.07;100.00;97836.75;5095090;28;20032;-76
2023/07/05 04:56:41;;;;;;;1999.90;999.90;;;;;;;19.01;100.00;97843.72;5093102;28;20039;-75
2023/07/05 04:59:06;;;;;;;1999.90;999.90;;;;;;;18.85;100.00;97840.09;5092063;28;20020;-76
2023/07/05 05:01:32;;;;;;;1999.90;999.90;;;;;;;18.88;100.00;97833.84;5092832;28;20039;-76
2023/07/05 05:03:57;;;;;;;1999.90;999.90;;;;;;;19.01;100.00;97834.59;5093123;28;20090;-75
2023/07/05 05:06:22;;;;;;;1999.90;999.90;;;;;;;18.73;100.00;97834.59;5093112;28;20027;-75
2023/07/05 05:08:48;;;;;;;1999.90;999.90;;;;;;;18.84;100.00;97834.88;5092504;28;20484;-75
2023/07/05 05:11:14;;;;;;;1999.90;999.90;;;;;;;19.32;100.00;97842.19;5093174;28;20028;-76
2023/07/05 05:13:39;;;;;;;1999.90;999.90;;;;;;;19.28;100.00;97828.22;5093054;28;20073;-75
2023/07/05 05:16:05;;;;;;;1999.90;999.90;;;;;;;19.46;100.00;97825.94;5092793;28;20024;-75
2023/07/05 05:18:34;;;;;;;1999.90;999.90;;;;;;;19.51;100.00;97834.00;5092894;28;20486;-75
2023/07/05 05:21:01;;;;;;;1999.90;999.90;;;;;;;19.24;100.00;97830.88;5092816;28;20480;-76
2023/07/05 05:23:26;;;;;;;1999.90;999.90;;;;;;;19.48;100.00;97829.97;5093040;28;20043;-75
2023/07/05 05:25:52;;;;;;;1999.90;999.90;;;;;;;19.26;100.00;97822.22;5095880;28;20020;-76
2023/07/05 05:28:18;;;;;;;1999.90;999.90;;;;;;;19.34;100.00;97828.75;5099142;28;20035;-76
2023/07/05 05:30:44;;;;;;;1999.90;999.90;;;;;;;19.61;100.00;97828.72;5091903;28;20042;-75
2023/07/05 05:33:14;;;;;;;1999.90;999.90;;;;;;;19.74;100.00;97823.88;5090793;28;20050;-78
2023/07/05 05:35:45;;;;;;;1999.90;999.90;;;;;;;20.16;100.00;97838.84;5092571;28;20020;-75
2023/07/05 05:38:10;;;;;;;1999.90;999.90;;;;;;;20.07;100.00;97835.44;5092253;28;20524;-76
2023/07/05 05:40:35;;;;;;;1999.90;999.90;;;;;;;19.83;100.00;97835.63;5092826;28;20225;-74
2023/07/05 05:43:01;;;;;;;1999.90;999.90;;;;;;;19.66;100.00;97825.69;5092597;28;20018;-77
2023/07/05 05:45:26;;;;;;;1999.90;999.90;;;;;;;20.10;100.00;97843.06;5093464;28;20507;-75
2023/07/05 05:47:52;;;;;;;1999.90;999.90;;;;;;;20.09;100.00;97835.88;5092613;28;20048;-75
2023/07/05 05:50:19;;;;;;;1999.90;999.90;;;;;;;20.14;100.00;97834.81;5091600;28;20117;-76
2023/07/05 05:52:44;;;;;;;1999.90;999.90;;;;;;;19.72;100.00;97824.25;5090351;28;20036;-74
2023/07/05 05:55:09;;;;;;;1999.90;999.90;;;;;;;19.99;100.00;97838.38;5091799;28;20031;-76
2023/07/05 05:57:35;;;;;;;1999.90;999.90;;;;;;;19.96;100.00;97837.13;5092246;28;20577;-75
2023/07/05 06:00:00;;;;;;;1999.90;999.90;;;;;;;20.07;100.00;97841.00;5092768;28;20118;-75
2023/07/05 06:02:26;;;;;;;1999.90;999.90;;;;;;;19.95;100.00;97826.41;5092187;28;20045;-76
2023/07/05 06:04:51;;;;;;;1999.90;999.90;;;;;;;20.30;100.00;97836.41;5091627;28;20024;-75
2023/07/05 06:07:17;;;;;;;1999.90;999.90;;;;;;;20.43;100.00;97833.50;5092282;28;20032;-73
2023/07/05 06:09:48;;;;;;;1999.90;999.90;;;;;;;20.14;100.00;97835.59;5093698;28;20473;-81
2023/07/05 06:12:15;;;;;;;1999.90;999.90;;;;;;;20.29;100.00;97831.22;5083198;28;20485;-74
2023/07/05 06:14:40;;;;;;;1999.90;999.90;;;;;;;20.47;100.00;97831.63;5081655;28;20043;-85
2023/07/05 06:17:06;;;;;;;1999.90;999.90;;;;;;;20.44;100.00;97801.78;5078735;28;20025;-76
2023/07/05 06:19:32;;;;;;;1999.90;999.90;;;;;;;21.12;100.00;97833.44;5077766;28;20440;-74
2023/07/05 06:21:58;;;;;;;1999.90;999.90;;;;;;;21.71;100.00;97834.94;5072798;28;20035;-79
2023/07/05 06:24:24;;;;;;;1999.90;999.90;;;;;;;21.82;100.00;97845.09;5071680;28;20032;-73
2023/07/05 06:26:49;;;;;;;1999.90;999.90;;;;;;;22.27;100.00;97849.06;5071545;28;20037;-72
2023/07/05 06:29:14;;;;;;;1999.90;999.90;;;;;;;21.54;100.00;97836.25;5071681;28;20033;-72
2023/07/05 06:31:40;;;;;;;1999.90;999.90;;;;;;;21.52;100.00;97840.56;5071833;28;20422;-72
2023/07/05 06:34:05;;;;;;;1999.90;999.90;;;;;;;21.42;100.00;97855.91;5073519;28;20033;-72
2023/07/05 06:36:30;;;;;;;1999.90;999.90;;;;;;;21.65;100.00;97853.13;5073084;28;20071;-73
2023/07/05 06:38:56;;;;;;;1999.90;999.90;;;;;;;21.22;100.00;97866.25;5071275;28;20032;-72
2023/07/05 06:41:21;;;;;;;1999.90;999.90;;;;;;;21.22;100.00;97863.47;5071087;28;20028;-73
2023/07/05 06:43:47;;;;;;;1999.90;999.90;;;;;;;21.21;100.00;97861.84;5069928;28;20115;-72
2023/07/05 06:46:12;;;;;;;1999.90;999.90;;;;;;;21.61;100.00;97863.41;5069540;28;20492;-73
2023/07/05 06:48:37;;;;;;;1999.90;999.90;;;;;;;22.08;100.00;97852.72;5070343;28;20044;-73
2023/07/05 06:51:03;;;;;;;1999.90;999.90;;;;;;;22.71;100.00;97863.28;5070385;28;20021;-74
2023/07/05 06:53:28;;;;;;;1999.90;999.90;;;;;;;22.62;100.00;97857.94;5070389;28;20605;-74
2023/07/05 06:55:54;;;;;;;1999.90;999.90;;;;;;;22.79;100.00;97862.19;5070765;28;20795;-74
2023/07/05 06:58:20;;;;;;;1999.90;999.90;;;;;;;23.08;100.00;97869.75;5072060;28;20048;-74
2023/07/05 07:00:48;;;;;;;1999.90;999.90;;;;;;;23.33;100.00;97870.88;5074263;28;20093;-74
2023/07/05 07:03:14;;;;;;;1999.90;999.90;;;;;;;23.25;100.00;97863.56;5070745;28;20083;-74
2023/07/05 07:05:39;;;;;;;1999.90;999.90;;;;;;;23.10;100.00;97863.78;5070951;28;20043;-74
2023/07/05 07:08:05;;;;;;;1999.90;999.90;;;;;;;23.16;100.00;97860.28;5070600;28;20021;-73
2023/07/05 07:10:30;;;;;;;1999.90;999.90;;;;;;;23.38;100.00;97858.53;5070555;28;20040;-73
2023/07/05 07:12:55;;;;;;;1999.90;999.90;;;;;;;23.32;100.00;97858.09;5070743;28;20024;-73
2023/07/05 07:15:21;;;;;;;1999.90;999.90;;;;;;;22.89;100.00;97853.97;5070743;28;20021;-73
2023/07/05 07:17:47;;;;;;;1999.90;999.90;;;;;;;23.44;100.00;97843.88;5070538;28;20063;-73
2023/07/05 07:20:14;;;;;;;1999.90;999.90;;;;;;;23.56;100.00;97851.19;5070958;28;20086;-74
2023/07/05 07:22:40;;;;;;;1999.90;999.90;;;;;;;24.04;100.00;97854.03;5070820;28;20021;-74
2023/07/05 07:25:06;;;;;;;1999.90;999.90;;;;;;;23.99;100.00;97849.63;5070509;28;20108;-74
2023/07/05 07:27:33;;;;;;;1999.90;999.90;;;;;;;23.72;100.00;97853.75;5070791;28;20052;-74
2023/07/05 07:29:58;;;;;;;1999.90;999.90;;;;;;;23.83;100.00;97840.69;5071382;28;20062;-74
2023/07/05 07:32:24;;;;;;;1999.90;999.90;;;;;;;24.05;100.00;97842.50;5074823;28;20028;-74
2023/07/05 07:34:54;;;;;;;1999.90;999.90;;;;;;;24.27;100.00;97835.91;5071492;28;20032;-74
2023/07/05 07:37:19;;;;;;;1999.90;999.90;;;;;;;24.42;100.00;97842.41;5069769;28;20459;-74
2023/07/05 07:39:44;;;;;;;1999.90;999.90;;;;;;;24.51;100.00;97851.25;5070532;28;20024;-73
2023/07/05 07:42:11;;;;;;;1999.90;999.90;;;;;;;24.51;100.00;97852.06;5070252;28;20021;-74
2023/07/05 07:44:36;;;;;;;1999.90;999.90;;;;;;;24.30;100.00;97842.72;5070309;28;20120;-74
2023/07/05 07:47:03;;;;;;;1999.90;999.90;;;;;;;24.56;100.00;97848.06;5070329;28;20107;-73
2023/07/05 07:49:28;;;;;;;1999.90;999.90;;;;;;;24.65;100.00;97850.53;5070365;28;20044;-73
2023/07/05 07:51:55;;;;;;;1999.90;999.90;;;;;;;23.92;100.00;97841.97;5070481;28;20048;-73
2023/07/05 07:54:25;;;;;;;1999.90;999.90;;;;;;;24.11;100.00;97842.94;5070238;28;20029;-72
2023/07/05 07:56:53;;;;;;;1999.90;999.90;;;;;;;24.83;100.00;97840.28;5070487;28;20032;-73
2023/07/05 07:59:18;;;;;;;1999.90;999.90;;;;;;;25.18;100.00;97843.25;5070353;28;20028;-73
2023/07/05 08:01:45;;;;;;;1999.90;999.90;;;;;;;27.58;78.96;97850.75;5070791;28;20025;-73
2023/07/05 08:04:12;;;;;;;1999.90;999.90;;;;;;;29.05;66.99;97852.78;5070247;28;20043;-73
2023/07/05 08:06:45;;;;;;;1999.90;999.90;;;;;;;29.02;66.89;97845.16;5069885;28;20075;-73
2023/07/05 08:09:16;;;;;;;1999.90;999.90;;;;;;;31.41;55.76;97859.53;5070243;28;20039;-74
2023/07/05 08:11:42;;;;;;;1999.90;999.90;;;;;;;30.23;58.42;97854.38;5069810;28;20028;-74
2023/07/05 08:14:09;;;;;;;1999.90;999.90;;;;;;;29.91;58.32;97853.31;5069816;28;20036;-73
2023/07/05 08:16:34;;;;;;;1999.90;999.90;;;;;;;30.30;57.68;97856.31;5069975;28;20465;-73
2023/07/05 08:19:01;;;;;;;1999.90;999.90;;;;;;;31.79;52.66;97862.75;5076909;28;20054;-73
2023/07/05 08:21:27;;;;;;;1999.90;999.90;;;;;;;31.96;50.73;97866.41;5070098;28;20028;-73
2023/07/05 08:23:53;;;;;;;1999.90;999.90;;;;;;;31.48;52.55;97859.38;5069915;28;20126;-74
2023/07/05 08:26:18;;;;;;;1999.90;999.90;;;;;;;31.27;54.63;97856.97;5069885;28;20029;-73
2023/07/05 08:28:45;;;;;;;1999.90;999.90;;;;;;;30.45;55.51;97868.22;5070688;28;20056;-73
2023/07/05 08:31:10;;;;;;;1999.90;999.90;;;;;;;32.71;48.75;97872.69;5073722;28;20048;-74
2023/07/05 08:33:37;;;;;;;1999.90;999.90;;;;;;;33.90;44.72;97878.25;5073432;28;20476;-74
2023/07/05 08:36:05;;;;;;;1999.90;999.90;;;;;;;34.52;43.17;97876.69;5071769;28;20025;-72
2023/07/05 08:38:31;;;;;;;1999.90;999.90;;;;;;;33.68;44.63;97866.75;5073325;28;20032;-73
2023/07/05 08:41:05;;;;;;;1999.90;999.90;;;;;;;33.25;45.22;97869.22;5073374;28;20069;-73
2023/07/05 08:43:43;;;;;;;1999.90;999.90;;;;;;;32.01;48.96;97863.06;5073333;28;20488;-73
2023/07/05 08:46:14;;;;;;;1999.90;999.90;;;;;;;33.46;44.24;97857.25;5073285;28;20497;-73
2023/07/05 08:48:42;;;;;;;1999.90;999.90;;;;;;;34.43;43.37;97868.03;5072840;28;20056;-72
2023/07/05 08:51:09;;;;;;;1999.90;999.90;;;;;;;32.88;46.08;97864.97;5072896;28;20161;-72
2023/07/05 08:53:47;;;;;;;1999.90;999.90;;;;;;;33.97;44.45;97865.88;5072829;28;20077;-73
2023/07/05 08:56:19;;;;;;;1999.90;999.90;;;;;;;34.70;42.66;97862.69;5072864;28;20032;-72
2023/07/05 08:58:56;;;;;;;1999.90;999.90;;;;;;;36.51;39.85;97868.84;5072571;28;20485;-74
2023/07/05 09:01:32;;;;;;;1999.90;999.90;;;;;;;36.12;38.11;97863.16;5073403;28;20021;-72
2023/07/05 09:03:58;;;;;;;1999.90;999.90;;;;;;;33.50;43.53;97845.81;5073267;28;20021;-72
2023/07/05 09:06:38;;;;;;;1999.90;999.90;;;;;;;31.87;47.45;97835.09;5072849;28;20385;-72
2023/07/05 09:09:22;;;;;;;1999.90;999.90;;;;;;;32.49;45.37;97837.59;5072953;28;20021;-74
2023/07/05 09:12:07;;;;;;;1999.90;999.90;;;;;;;31.74;46.82;97838.59;5072620;28;20458;-73
2023/07/05 09:15:02;;;;;;;1999.90;999.90;;;;;;;30.22;51.30;97820.97;5070885;28;20114;-72
2023/07/05 09:17:46;;;;;;;1999.90;999.90;;;;;;;29.03;55.55;97827.03;5073209;28;20451;-72
2023/07/05 09:20:36;;;;;;;1999.90;999.90;;;;;;;28.13;60.49;97808.63;5078543;28;20025;-73
2023/07/05 09:23:06;;;;;;;1999.90;999.90;;;;;;;29.71;55.64;97811.66;5072978;28;20380;-73
2023/07/05 09:25:34;;;;;;;1999.90;999.90;;;;;;;31.47;54.23;97811.72;5072758;28;20032;-74
2023/07/05 09:28:11;;;;;;;1999.90;999.90;;;;;;;33.54;47.60;97818.13;5091406;28;20103;-72
2023/07/05 09:30:37;;;;;;;1999.90;999.90;;;;;;;35.77;39.95;97843.34;5092992;28;20039;-73
2023/07/05 09:33:18;;;;;;;1999.90;999.90;;;;;;;36.16;38.34;97841.78;5092682;28;20056;-73
2023/07/05 09:35:46;;;;;;;1999.90;999.90;;;;;;;36.05;40.01;97834.94;5092910;28;20486;-73
2023/07/05 09:38:30;;;;;;;1999.90;999.90;;;;;;;38.00;36.15;97851.59;5093276;28;20023;-72
2023/07/05 09:41:10;;;;;;;1999.90;999.90;;;;;;;37.32;35.69;97835.19;5103851;28;20071;-75
2023/07/05 09:43:36;;;;;;;1999.90;999.90;;;;;;;36.50;36.83;97829.38;5103953;28;20078;-72
2023/07/05 09:46:06;;;;;;;1999.90;999.90;;;;;;;36.20;38.19;97825.34;5092763;28;20020;-73
2023/07/05 09:48:42;;;;;;;1999.90;999.90;;;;;;;34.93;41.51;97813.91;5092175;28;20051;-72
2023/07/05 09:51:08;;;;;;;1999.90;999.90;;;;;;;32.57;43.29;97798.59;5092214;28;20032;-73
2023/07/05 09:53:58;;;;;;;1999.90;999.90;;;;;;;32.42;45.29;97786.81;5091851;28;20487;-75
2023/07/05 09:56:28;;;;;;;1999.90;999.90;;;;;;;33.03;44.24;97797.31;5092182;28;20032;-72
2023/07/05 09:59:15;;;;;;;1999.90;999.90;;;;;;;33.62;44.39;97793.97;5092308;28;20028;-73
2023/07/05 10:01:47;;;;;;;1999.90;999.90;;;;;;;31.86;46.87;97780.50;5092406;28;20050;-72
2023/07/05 10:04:12;;;;;;;1999.90;999.90;;;;;;;31.09;47.87;97774.56;5095397;28;20024;-75
2023/07/05 10:06:46;;;;;;;1999.90;999.90;;;;;;;31.59;47.91;97769.44;5091365;28;20038;-74
2023/07/05 10:09:20;;;;;;;1999.90;999.90;;;;;;;30.86;49.56;97766.13;5095695;28;20108;-72
2023/07/05 10:11:57;;;;;;;1999.90;999.90;;;;;;;33.87;42.47;97783.41;5086921;28;20032;-74
2023/07/05 10:14:32;;;;;;;1999.90;999.90;;;;;;;34.24;40.94;97778.19;5095014;28;20381;-74
2023/07/05 10:17:03;;;;;;;1999.90;999.90;;;;;;;33.04;41.82;97770.56;5111278;28;20016;-71
2023/07/05 10:19:42;;;;;;;1999.90;999.90;;;;;;;31.46;44.53;97757.16;5098437;28;20086;-75
2023/07/05 10:22:14;;;;;;;1999.90;999.90;;;;;;;31.17;46.10;97756.22;5107390;28;20028;-75
2023/07/05 10:24:51;;;;;;;1999.90;999.90;;;;;;;30.94;47.40;97748.59;5099125;28;20020;-73
2023/07/05 10:27:36;;;;;;;1999.90;999.90;;;;;;;32.20;44.37;97754.63;5108097;28;20035;-73
2023/07/05 10:30:07;;;;;;;1999.90;999.90;;;;;;;32.93;41.82;97756.66;5083294;28;20044;-73
2023/07/05 10:32:33;;;;;;;1999.90;999.90;;;;;;;32.29;43.36;97754.78;5100899;28;20031;-73
2023/07/05 10:35:00;;;;;;;1999.90;999.90;;;;;;;31.99;45.03;97758.75;5105329;28;20036;-73
2023/07/05 10:37:31;;;;;;;1999.90;999.90;;;;;;;30.49;48.07;97758.78;5094141;28;20127;-73
2023/07/05 10:39:58;;;;;;;1999.90;999.90;;;;;;;29.26;51.73;97756.72;5105991;28;20027;-73
2023/07/05 10:42:25;;;;;;;1999.90;999.90;;;;;;;30.40;49.33;97759.34;5100291;28;20107;-72
2023/07/05 10:44:51;;;;;;;1999.90;999.90;;;;;;;31.12;49.77;97756.72;5100880;28;20028;-74
2023/07/05 10:47:17;;;;;;;1999.90;999.90;;;;;;;31.25;49.39;97754.81;5095251;28;20035;-74
2023/07/05 10:49:44;;;;;;;1999.90;999.90;;;;;;;30.19;51.37;97746.41;5088544;28;20097;-75
2023/07/05 10:52:12;;;;;;;1999.90;999.90;;;;;;;28.17;56.73;97744.66;5090065;28;20060;-73
2023/07/05 10:55:05;;;;;;;1999.90;999.90;;;;;;;28.03;57.93;97747.59;5101691;28;20035;-74
2023/07/05 10:57:36;;;;;;;1999.90;999.90;;;;;;;28.04;59.25;97746.38;5094137;28;20047;-73